Weather History for Three Rivers, MI

Change the Weather History Date:

Tuesday, January 24, 2012

  Actual Average Record
Temperature  
Mean Temperature 30 °F -  
Max Temperature 31 °F 34 °F 62 °F (1950)
Min Temperature 30 °F 17 °F -17 °F (1963)
Degree Days  
Heating Degree Days 34    
Moisture  
Dew Point 26 °F    
Average Humidity 83    
Maximum Humidity 85    
Minimum Humidity 80    
Precipitation  
Precipitation 0.00 in - - ()
Sea Level Pressure  
Sea Level Pressure 30.10 in    
Wind  
Wind Speed 11 mph (West)    
Max Wind Speed 20 mph    
Max Gust Speed 24 mph    
Visibility 10 miles    
Events      
Averages and records for this station are not official NWS values.
T = Trace of Precipitation, MM = Missing Value Source: NWS Daily Summary

Daily Weather History Graph

Daily Weather History Graph

Search for Another Location

Airport:

Trip Planner

Search our weather history database for the weather conditions in past years. The results will help you decide how hot, cold, wet, or windy it might be!

Date:

Astronomy

Jan. 24, 2012 Rise Set
Actual Time 8:02 AM EST 5:46 PM EST
Civil Twilight 7:32 AM EST 6:16 PM EST
Nautical Twilight 6:58 AM EST 6:50 PM EST
Astronomical Twilight 6:25 AM EST 7:23 PM EST
Moon 8:29 AM EST (1/24) 7:40 PM EST (1/24)
Length of Visible Light 10h 44m
Length of Day
9h 43m
New Moon, 2% of the Moon is Illuminated
Jan 24
New Moon
Jan 30
First Quarter
Feb 7
Full
Feb 14
Last Quarter
Feb 21
New

Hourly Weather History & Observations

Time (EST) Temp. Windchill Dew Point Humidity Pressure Visibility Wind Dir Wind Speed Gust Speed Precip Events Conditions
12:14 AM 30.9 °F 21.7 °F 26.4 °F 83% 29.86 in 7.0 mi WSW 11.5 mph 18.4 mph N/A   Overcast
12:35 AM 30.9 °F 20.7 °F 26.6 °F 84% 29.87 in 7.0 mi WSW 13.8 mph 20.7 mph N/A   Overcast
12:54 AM 30.7 °F 22.6 °F 26.6 °F 85% 29.87 in 7.0 mi WSW 9.2 mph 19.6 mph N/A   Overcast
1:15 AM 30.7 °F 21.4 °F 26.6 °F 85% 29.88 in 7.0 mi WSW 11.5 mph 18.4 mph N/A   Overcast
1:35 AM 30.6 °F 19.4 °F 26.4 °F 85% 29.88 in 10.0 mi WSW 16.1 mph 20.7 mph N/A   Overcast
1:54 AM 30.7 °F 21.4 °F 26.4 °F 84% 29.90 in 10.0 mi WSW 11.5 mph 17.3 mph N/A   Overcast
2:15 AM 30.7 °F 22.0 °F 26.4 °F 84% 29.90 in 10.0 mi WSW 10.4 mph 16.1 mph N/A   Overcast
2:35 AM 30.7 °F 22.0 °F 26.4 °F 84% 29.91 in 10.0 mi WSW 10.4 mph 19.6 mph N/A   Overcast
2:54 AM 30.7 °F 22.0 °F 26.2 °F 83% 29.92 in 10.0 mi WSW 10.4 mph 20.7 mph N/A   Overcast
3:35 AM 30.6 °F 20.7 °F 25.7 °F 82% 29.92 in 10.0 mi WSW 12.7 mph 17.3 mph N/A   Overcast
3:54 AM 30.6 °F 22.4 °F 25.7 °F 82% 29.92 in 10.0 mi WSW 9.2 mph - N/A   Overcast
4:15 AM 30.2 °F 19.3 °F 25.5 °F 83% 29.93 in 10.0 mi WSW 15.0 mph 21.9 mph N/A   Overcast
4:34 AM 30.2 °F 21.3 °F 25.5 °F 83% 29.94 in 10.0 mi WSW 10.4 mph 16.1 mph N/A   Overcast
5:15 AM 30.2 °F 21.3 °F 25.2 °F 82% 29.95 in 10.0 mi WSW 10.4 mph 16.1 mph N/A   Overcast
5:34 AM 30.2 °F 21.3 °F 25.0 °F 81% 29.95 in 10.0 mi SW 10.4 mph - N/A   Overcast
5:55 AM 30.0 °F 21.7 °F 24.8 °F 81% 29.96 in 10.0 mi WSW 9.2 mph - N/A   Overcast
6:14 AM 30.2 °F 21.9 °F 24.6 °F 80% 29.97 in 10.0 mi WSW 9.2 mph - N/A   Overcast
6:35 AM 30.0 °F 22.4 °F 24.8 °F 81% 29.98 in 10.0 mi WSW 8.1 mph - N/A   Overcast
6:55 AM 30.0 °F 21.7 °F 24.8 °F 81% 29.99 in 10.0 mi WSW 9.2 mph - N/A   Overcast
7:14 AM 30.0 °F 23.2 °F 25.2 °F 82% 30.00 in 10.0 mi WSW 6.9 mph - N/A   Overcast
7:35 AM 30.0 °F 21.7 °F 25.3 °F 83% 30.02 in 10.0 mi WSW 9.2 mph - N/A   Overcast
7:55 AM 30.2 °F 22.6 °F 25.7 °F 83% 30.03 in 10.0 mi WSW 8.1 mph - N/A   Overcast
8:14 AM 30.7 °F 18.5 °F 26.2 °F 83% 30.04 in 10.0 mi West 19.6 mph 23.0 mph N/A   Overcast
8:35 AM 30.7 °F 20.0 °F 26.4 °F 84% 30.05 in 10.0 mi West 15.0 mph 21.9 mph N/A   Overcast
8:55 AM 30.7 °F 21.4 °F 26.4 °F 84% 30.07 in 10.0 mi West 11.5 mph 18.4 mph N/A   Overcast
9:14 AM 30.6 °F 22.4 °F 26.4 °F 85% 30.07 in 10.0 mi WSW 9.2 mph - N/A   Overcast
9:35 AM 30.6 °F 20.7 °F 26.4 °F 85% 30.08 in 10.0 mi West 12.7 mph 18.4 mph N/A   Overcast
9:55 AM 30.6 °F 19.0 °F 26.1 °F 83% 30.10 in 10.0 mi West 17.3 mph 20.7 mph N/A   Overcast
10:14 AM 30.7 °F 20.9 °F 26.2 °F 83% 30.11 in 10.0 mi West 12.7 mph 18.4 mph N/A   Overcast
10:35 AM 30.6 °F 20.7 °F 26.2 °F 84% 30.12 in 10.0 mi West 12.7 mph 17.3 mph N/A   Overcast
10:54 AM 30.7 °F 20.0 °F 26.6 °F 85% 30.13 in 10.0 mi West 15.0 mph - N/A   Overcast
11:15 AM 30.9 °F 19.8 °F 26.6 °F 84% 30.14 in 10.0 mi West 16.1 mph 24.2 mph N/A   Overcast
11:35 AM 30.9 °F 21.2 °F 26.6 °F 84% 30.14 in 10.0 mi West 12.7 mph 21.9 mph N/A   Overcast
11:54 AM 30.9 °F 20.7 °F 26.6 °F 84% 30.14 in 10.0 mi West 13.8 mph 20.7 mph N/A   Overcast
12:15 PM 30.9 °F 21.2 °F 26.8 °F 85% 30.14 in 10.0 mi West 12.7 mph 18.4 mph N/A   Overcast
12:34 PM 31.1 °F 22.4 °F 26.8 °F 84% 30.14 in 10.0 mi West 10.4 mph - N/A   Overcast
12:55 PM 31.1 °F 21.9 °F 27.0 °F 85% 30.15 in 10.0 mi WNW 11.5 mph 17.3 mph N/A   Overcast
1:35 PM 31.5 °F 21.8 °F 27.0 °F 83% 30.15 in 10.0 mi West 12.7 mph - N/A   Overcast
1:55 PM 31.1 °F 20.9 °F 26.8 °F 84% 30.15 in 10.0 mi West 13.8 mph 17.3 mph N/A   Overcast
2:14 PM 30.9 °F 21.2 °F 26.6 °F 84% 30.15 in 10.0 mi WNW 12.7 mph 17.3 mph N/A   Overcast
2:35 PM 30.9 °F 21.7 °F 26.6 °F 84% 30.16 in 10.0 mi WNW 11.5 mph - N/A   Overcast
2:55 PM 31.1 °F 21.4 °F 26.6 °F 83% 30.17 in 10.0 mi West 12.7 mph - N/A   Overcast
3:14 PM 30.7 °F 22.0 °F 26.4 °F 84% 30.19 in 10.0 mi West 10.4 mph - N/A   Overcast
3:35 PM 30.7 °F 21.4 °F 26.6 °F 85% 30.20 in 10.0 mi West 11.5 mph - N/A   Overcast
3:55 PM 30.7 °F 22.6 °F 26.6 °F 85% 30.22 in 10.0 mi West 9.2 mph - N/A   Overcast
4:14 PM 30.7 °F 20.9 °F 26.2 °F 83% 30.23 in 10.0 mi West 12.7 mph 19.6 mph N/A   Overcast
4:35 PM 30.7 °F 22.0 °F 26.2 °F 83% 30.23 in 10.0 mi West 10.4 mph - N/A   Overcast
4:55 PM 30.6 °F 21.8 °F 26.4 °F 85% 30.24 in 10.0 mi West 10.4 mph - N/A   Overcast
5:14 PM 30.6 °F 23.1 °F 26.1 °F 83% 30.24 in 10.0 mi West 8.1 mph - N/A   Overcast
5:55 PM 30.2 °F 23.4 °F 26.2 °F 85% 30.27 in 10.0 mi West 6.9 mph - N/A   Overcast
6:15 PM 30.2 °F 21.9 °F 25.9 °F 84% 30.28 in 10.0 mi West 9.2 mph - N/A   Overcast
6:35 PM 30.2 °F 23.4 °F 25.7 °F 83% 30.28 in 10.0 mi West 6.9 mph - N/A   Overcast
6:54 PM 30.2 °F 25.4 °F 25.7 °F 83% 30.28 in 10.0 mi WNW 4.6 mph - N/A   Overcast
7:15 PM 30.2 °F 23.4 °F 25.7 °F 83% 30.29 in 10.0 mi West 6.9 mph - N/A   Overcast
7:35 PM 30.0 °F 26.5 °F 25.3 °F 83% 30.28 in 10.0 mi WNW 3.5 mph - N/A   Overcast
7:54 PM 30.0 °F 24.1 °F 25.5 °F 83% 30.29 in 10.0 mi WNW 5.8 mph - N/A   Overcast
8:35 PM 30.0 °F 26.5 °F 25.7 °F 84% 30.31 in 10.0 mi NW 3.5 mph - N/A   Overcast
8:54 PM 30.0 °F 24.1 °F 25.7 °F 84% 30.31 in 10.0 mi WNW 5.8 mph - N/A   Overcast
9:15 PM 30.2 °F 26.7 °F 25.7 °F 83% 30.31 in 10.0 mi WNW 3.5 mph - N/A   Overcast
9:35 PM 30.2 °F 22.6 °F 25.5 °F 83% 30.32 in 10.0 mi NW 8.1 mph - N/A   Overcast
10:35 PM 30.2 °F 26.7 °F 25.5 °F 83% 30.33 in 10.0 mi WNW 3.5 mph - N/A   Overcast
10:55 PM 30.2 °F 24.3 °F 25.5 °F 83% 30.32 in 10.0 mi NNW 5.8 mph - N/A   Overcast
11:15 PM 30.2 °F - 25.5 °F 83% 30.30 in 10.0 mi Calm Calm - N/A   Overcast
11:35 PM 30.2 °F 25.4 °F 25.3 °F 82% 30.30 in 10.0 mi NNW 4.6 mph - N/A   Overcast
11:55 PM 30.4 °F - 25.3 °F 82% 30.30 in 10.0 mi Calm Calm - N/A   Overcast